Time;durP1;ratioP1;P1;durP2;ratioP2;P2;SDS_P1;SDS_P2;PMS_P1;PMS_P2;Temp;Humidity;BMP_temperature;BMP_pressure;BME280_temperature;BME280_humidity;BME280_pressure;Samples;Min_cycle;Max_cycle;Signal;HPM_P1;HPM_P2
2023/09/23 00:00:55;;;;;;;9.80;2.85;;;11.50;99.90;;;;;;5062723;28;20207;-89
2023/09/23 00:03:23;;;;;;;4.83;2.33;;;11.40;99.90;;;;;;5064819;28;20212;-88
2023/09/23 00:05:49;;;;;;;3.13;2.50;;;11.40;99.90;;;;;;5069912;28;20437;-88
2023/09/23 00:08:18;;;;;;;3.30;3.00;;;11.40;99.90;;;;;;5082408;28;20410;-90
2023/09/23 00:10:50;;;;;;;3.25;2.65;;;11.40;99.90;;;;;;5079374;28;20797;-89
2023/09/23 00:13:16;;;;;;;8.88;3.25;;;11.50;99.90;;;;;;5079257;28;20283;-88
2023/09/23 00:15:43;;;;;;;3.50;2.95;;;11.50;99.90;;;;;;5062716;28;20184;-87
2023/09/23 00:18:09;;;;;;;5.37;2.90;;;11.50;99.90;;;;;;5096927;28;20215;-88
2023/09/23 00:20:36;;;;;;;5.55;3.00;;;11.50;99.90;;;;;;5079269;28;20909;-88
2023/09/23 00:23:05;;;;;;;3.72;2.60;;;11.50;99.90;;;;;;5078593;28;20309;-89
2023/09/23 00:25:31;;;;;;;3.17;2.53;;;11.50;99.90;;;;;;5096807;28;20267;-88
2023/09/23 00:27:57;;;;;;;3.13;2.30;;;11.50;99.90;;;;;;5079021;28;20216;-88
2023/09/23 00:30:23;;;;;;;6.70;3.07;;;11.60;99.90;;;;;;5078467;28;20184;-88
2023/09/23 00:32:49;;;;;;;4.73;2.73;;;11.60;99.90;;;;;;5079033;28;20184;-88
2023/09/23 00:35:15;;;;;;;7.55;2.78;;;11.60;99.90;;;;;;5078673;28;20417;-88
2023/09/23 00:37:42;;;;;;;3.00;2.37;;;11.60;99.90;;;;;;5096809;28;20176;-88
2023/09/23 00:40:20;;;;;;;4.90;3.33;;;11.70;99.90;;;;;;5078954;28;20505;-89
2023/09/23 00:42:49;;;;;;;5.43;3.30;;;11.60;99.90;;;;;;5078849;28;20667;-88
2023/09/23 00:45:17;;;;;;;4.20;3.45;;;11.60;99.90;;;;;;5096487;28;20180;-88
2023/09/23 00:47:45;;;;;;;3.25;2.95;;;11.60;99.90;;;;;;5096589;28;20183;-88
2023/09/23 00:50:17;;;;;;;3.97;3.13;;;11.50;99.90;;;;;;5096330;28;20576;-88
2023/09/23 00:52:43;;;;;;;3.30;3.00;;;11.50;99.90;;;;;;5079376;28;20171;-88
2023/09/23 00:55:08;;;;;;;4.10;3.43;;;11.50;99.90;;;;;;5061107;28;20282;-88
2023/09/23 00:57:35;;;;;;;8.93;3.93;;;11.40;99.90;;;;;;5061864;28;20210;-88
2023/09/23 01:00:03;;;;;;;6.20;3.53;;;11.40;99.90;;;;;;5062680;28;20195;-88
2023/09/23 01:02:29;;;;;;;4.47;3.10;;;11.30;99.90;;;;;;5096286;28;20184;-88
2023/09/23 01:04:55;;;;;;;4.30;3.00;;;11.20;99.90;;;;;;5078199;28;20303;-88
2023/09/23 01:07:20;;;;;;;10.57;5.23;;;11.10;99.90;;;;;;5077619;28;20180;-88
2023/09/23 01:09:46;;;;;;;5.07;3.30;;;11.00;99.90;;;;;;5096021;28;20176;-88
2023/09/23 01:12:13;;;;;;;5.10;3.40;;;10.90;99.90;;;;;;5078255;28;20632;-88
2023/09/23 01:14:38;;;;;;;5.57;3.70;;;10.80;99.90;;;;;;5078035;28;20207;-87
2023/09/23 01:17:07;;;;;;;5.70;2.90;;;10.70;99.90;;;;;;5061308;28;20180;-88
2023/09/23 01:19:34;;;;;;;4.78;3.08;;;10.60;99.90;;;;;;5062317;28;20225;-87
2023/09/23 01:22:00;;;;;;;4.43;3.70;;;10.60;99.90;;;;;;5077607;28;20204;-88
2023/09/23 01:24:30;;;;;;;4.15;3.03;;;10.50;99.90;;;;;;5061331;28;20247;-87
2023/09/23 01:26:55;;;;;;;4.10;2.92;;;10.40;99.90;;;;;;5078054;28;20230;-87
2023/09/23 01:29:26;;;;;;;3.87;3.47;;;10.40;99.90;;;;;;5044226;28;20184;-87
2023/09/23 01:32:20;;;;;;;3.67;3.13;;;10.40;99.90;;;;;;5061614;28;20690;-87
2023/09/23 01:34:45;;;;;;;4.38;2.95;;;10.30;99.90;;;;;;5073949;28;20189;-87
2023/09/23 01:37:11;;;;;;;4.50;3.00;;;10.20;99.90;;;;;;5073995;28;20177;-87
2023/09/23 01:39:40;;;;;;;5.27;3.13;;;10.20;99.90;;;;;;5057758;28;20180;-87
2023/09/23 01:42:07;;;;;;;5.88;3.13;;;10.10;99.90;;;;;;5057200;28;20187;-88
2023/09/23 01:44:33;;;;;;;5.15;3.50;;;10.10;99.90;;;;;;5062698;28;20221;-87
2023/09/23 01:46:58;;;;;;;7.13;3.20;;;10.10;99.90;;;;;;5105898;28;20628;-87
2023/09/23 01:49:24;;;;;;;3.60;3.27;;;10.00;99.90;;;;;;5076884;28;20191;-86
2023/09/23 01:51:50;;;;;;;4.03;2.90;;;10.00;99.90;;;;;;5060791;28;20180;-86
2023/09/23 01:54:16;;;;;;;8.88;3.55;;;9.90;99.90;;;;;;5056944;28;20196;-87
2023/09/23 01:56:43;;;;;;;7.07;3.03;;;9.90;99.90;;;;;;5073903;28;20613;-87
2023/09/23 01:59:09;;;;;;;3.10;2.83;;;9.90;99.90;;;;;;5074898;28;20208;-87
2023/09/23 02:01:35;;;;;;;6.68;3.03;;;9.80;99.90;;;;;;5063410;28;20204;-87
2023/09/23 02:04:01;;;;;;;5.40;3.57;;;9.80;99.90;;;;;;5095121;28;20230;-87
2023/09/23 02:06:30;;;;;;;4.43;2.83;;;9.70;99.90;;;;;;5056848;28;20216;-87
2023/09/23 02:08:57;;;;;;;4.82;3.17;;;9.70;99.90;;;;;;5057020;28;20239;-87
2023/09/23 02:11:22;;;;;;;5.65;3.15;;;9.70;99.90;;;;;;5057370;28;20179;-87
2023/09/23 02:13:50;;;;;;;5.40;2.73;;;9.70;99.90;;;;;;5064310;28;20193;-87
2023/09/23 02:16:18;;;;;;;5.53;3.10;;;9.70;99.90;;;;;;5057975;28;20633;-85
2023/09/23 02:18:45;;;;;;;7.47;2.80;;;9.70;99.90;;;;;;5089674;28;20220;-87
2023/09/23 02:21:12;;;;;;;5.85;2.38;;;9.60;99.90;;;;;;5097290;28;20176;-88
2023/09/23 02:23:38;;;;;;;8.68;3.55;;;9.60;99.90;;;;;;5094423;28;20223;-87
2023/09/23 02:26:04;;;;;;;6.60;3.13;;;9.60;99.90;;;;;;5060279;28;20691;-87
2023/09/23 02:28:29;;;;;;;3.10;2.57;;;9.70;99.90;;;;;;5076827;28;20176;-86
2023/09/23 02:30:55;;;;;;;5.60;2.50;;;9.70;99.90;;;;;;5060066;28;20267;-87
2023/09/23 02:33:20;;;;;;;3.80;2.20;;;9.70;99.90;;;;;;5059684;28;20192;-87
2023/09/23 02:35:46;;;;;;;3.70;2.47;;;9.70;99.90;;;;;;5076295;28;20213;-87
2023/09/23 02:38:11;;;;;;;3.50;2.80;;;9.60;99.90;;;;;;5059959;28;20180;-86
2023/09/23 02:40:42;;;;;;;3.10;2.70;;;9.60;99.90;;;;;;5059751;28;20195;-87
2023/09/23 02:43:08;;;;;;;6.75;2.58;;;9.60;99.90;;;;;;5076386;28;20616;-87
2023/09/23 02:45:33;;;;;;;7.17;2.80;;;9.60;99.90;;;;;;5059729;28;20180;-87
2023/09/23 02:47:59;;;;;;;4.90;3.40;;;9.60;99.90;;;;;;5059828;28;20180;-87
2023/09/23 02:50:25;;;;;;;3.38;3.00;;;9.50;99.90;;;;;;5056838;28;20672;-85
2023/09/23 02:52:51;;;;;;;5.07;2.50;;;9.50;99.90;;;;;;5056660;28;20591;-87
2023/09/23 02:55:20;;;;;;;8.40;3.00;;;9.50;99.90;;;;;;5072989;28;20179;-88
2023/09/23 02:57:49;;;;;;;4.40;2.53;;;9.50;99.90;;;;;;5073941;28;20177;-88
2023/09/23 03:00:16;;;;;;;4.03;2.95;;;9.40;99.90;;;;;;5072830;28;20184;-88
2023/09/23 03:02:56;;;;;;;6.03;3.17;;;9.40;99.90;;;;;;5073803;28;20276;-87
2023/09/23 03:05:29;;;;;;;4.63;2.63;;;9.40;99.90;;;;;;5073819;28;20255;-88
2023/09/23 03:07:59;;;;;;;6.07;3.08;;;9.30;99.90;;;;;;5090771;28;20180;-88
2023/09/23 03:10:32;;;;;;;4.63;2.67;;;9.30;99.90;;;;;;5076360;28;20184;-88
2023/09/23 03:13:05;;;;;;;4.85;2.45;;;9.30;99.90;;;;;;5059632;28;20249;-87
2023/09/23 03:15:36;;;;;;;3.28;2.97;;;9.20;99.90;;;;;;5104260;28;20194;-88
2023/09/23 03:18:03;;;;;;;12.80;3.03;;;9.20;99.90;;;;;;5096765;28;20648;-88
2023/09/23 03:20:28;;;;;;;4.15;2.88;;;9.20;99.90;;;;;;5062715;28;20203;-88
2023/09/23 03:22:54;;;;;;;4.33;2.43;;;9.20;99.90;;;;;;5105373;28;20254;-88
2023/09/23 03:25:20;;;;;;;6.53;2.80;;;9.20;99.90;;;;;;5043008;28;20205;-88
2023/09/23 03:27:52;;;;;;;5.13;2.75;;;9.20;99.90;;;;;;5076072;28;20183;-88
2023/09/23 03:30:19;;;;;;;6.75;3.08;;;9.20;99.90;;;;;;5076866;28;20180;-88
2023/09/23 03:32:45;;;;;;;4.47;2.20;;;9.10;99.90;;;;;;5063477;28;20191;-88
2023/09/23 03:35:17;;;;;;;4.63;2.50;;;9.10;99.90;;;;;;5097855;28;20516;-88
2023/09/23 03:37:51;;;;;;;5.57;2.38;;;9.10;99.90;;;;;;5063885;28;20188;-87
2023/09/23 03:40:24;;;;;;;6.38;2.63;;;9.00;99.90;;;;;;5097474;28;20271;-88
2023/09/23 03:42:50;;;;;;;8.38;2.58;;;9.00;99.90;;;;;;5077478;28;20157;-88
2023/09/23 03:45:17;;;;;;;9.70;3.17;;;9.00;99.90;;;;;;5059395;28;20189;-88
2023/09/23 03:47:44;;;;;;;5.18;2.22;;;9.00;99.90;;;;;;5059480;28;20519;-88
2023/09/23 03:50:10;;;;;;;6.45;2.13;;;9.00;99.90;;;;;;5059685;28;20192;-88
2023/09/23 03:52:36;;;;;;;7.37;3.00;;;8.90;99.90;;;;;;5048734;28;20242;-88
2023/09/23 03:55:03;;;;;;;5.03;2.22;;;8.90;99.90;;;;;;5059784;28;20177;-88
2023/09/23 03:57:29;;;;;;;4.55;3.25;;;8.90;99.90;;;;;;5042846;28;20553;-88
2023/09/23 03:59:55;;;;;;;4.80;2.97;;;8.90;99.90;;;;;;5076290;28;20180;-88
2023/09/23 04:02:21;;;;;;;4.13;2.40;;;8.80;99.90;;;;;;5059416;28;20431;-90
2023/09/23 04:04:53;;;;;;;4.75;2.33;;;8.80;99.90;;;;;;5042737;28;20299;-88
2023/09/23 04:07:20;;;;;;;4.68;2.90;;;8.80;99.90;;;;;;5059689;28;20192;-89
2023/09/23 04:09:45;;;;;;;4.57;2.60;;;8.80;99.90;;;;;;5097602;28;20201;-88
2023/09/23 04:12:12;;;;;;;6.40;3.00;;;8.80;99.90;;;;;;5067098;28;20193;-88
2023/09/23 04:14:37;;;;;;;8.23;2.63;;;8.70;99.90;;;;;;5058893;28;20211;-88
2023/09/23 04:17:03;;;;;;;10.80;2.50;;;8.70;99.90;;;;;;5058833;28;20188;-88
2023/09/23 04:19:29;;;;;;;3.50;2.40;;;8.70;99.90;;;;;;5042650;28;20234;-88
2023/09/23 04:21:55;;;;;;;3.72;2.38;;;8.70;99.90;;;;;;5058712;28;20268;-88
2023/09/23 04:24:21;;;;;;;6.20;2.40;;;8.70;99.90;;;;;;5069271;28;20302;-89
2023/09/23 04:26:47;;;;;;;3.95;2.30;;;8.70;99.90;;;;;;5079320;28;20430;-89
2023/09/23 04:29:14;;;;;;;3.40;2.40;;;8.80;99.90;;;;;;5059613;28;20185;-89
2023/09/23 04:31:39;;;;;;;10.27;2.95;;;8.80;99.90;;;;;;5064614;28;20181;-89
2023/09/23 04:34:05;;;;;;;4.90;2.07;;;8.80;99.90;;;;;;5080969;28;20246;-88
2023/09/23 04:36:31;;;;;;;9.70;2.07;;;8.80;99.90;;;;;;5076901;28;20621;-89
2023/09/23 04:38:57;;;;;;;9.23;2.75;;;8.80;99.90;;;;;;5044154;28;20687;-89
2023/09/23 04:41:22;;;;;;;3.73;2.63;;;8.80;99.90;;;;;;5077897;28;20180;-89
2023/09/23 04:43:48;;;;;;;4.23;2.30;;;8.90;99.90;;;;;;5096560;28;20211;-89
2023/09/23 04:46:17;;;;;;;5.10;3.53;;;8.90;99.90;;;;;;5044966;28;20191;-89
2023/09/23 04:48:43;;;;;;;4.00;2.67;;;9.00;99.90;;;;;;5078974;28;20620;-89
2023/09/23 04:51:08;;;;;;;6.35;2.85;;;9.10;99.90;;;;;;5078852;28;20184;-89
2023/09/23 04:53:35;;;;;;;10.13;3.43;;;9.10;99.90;;;;;;5062065;28;20357;-89
2023/09/23 04:56:06;;;;;;;9.07;2.55;;;9.10;99.90;;;;;;5096393;28;20213;-89
2023/09/23 04:58:32;;;;;;;7.85;3.22;;;9.10;99.90;;;;;;5091176;28;20187;-89
2023/09/23 05:00:59;;;;;;;3.53;2.40;;;9.10;99.90;;;;;;5046978;28;20640;-89
2023/09/23 05:03:24;;;;;;;6.75;2.85;;;9.10;99.90;;;;;;5078977;28;20208;-89
2023/09/23 05:05:50;;;;;;;5.63;3.20;;;9.10;99.90;;;;;;5096870;28;20206;-89
2023/09/23 05:08:16;;;;;;;6.10;3.10;;;9.10;99.90;;;;;;5078229;28;20259;-89
2023/09/23 05:10:41;;;;;;;4.70;2.97;;;9.10;99.90;;;;;;5061257;28;20180;-89
2023/09/23 05:13:09;;;;;;;2.83;2.50;;;9.10;99.90;;;;;;5061265;28;20543;-88
2023/09/23 05:15:35;;;;;;;4.22;3.53;;;9.20;99.90;;;;;;5077954;28;20188;-89
2023/09/23 05:18:00;;;;;;;4.57;2.70;;;9.10;99.90;;;;;;5078449;28;20285;-89
2023/09/23 05:20:26;;;;;;;2.90;2.70;;;9.10;99.90;;;;;;5061495;28;20191;-89
2023/09/23 05:22:55;;;;;;;8.68;2.75;;;9.20;99.90;;;;;;5077252;28;20647;-88
2023/09/23 05:25:24;;;;;;;5.28;3.30;;;9.20;99.90;;;;;;5077676;28;20544;-89
2023/09/23 05:27:49;;;;;;;8.73;3.10;;;9.20;99.90;;;;;;5046652;28;20189;-89
2023/09/23 05:30:15;;;;;;;11.90;3.07;;;9.20;99.90;;;;;;5075795;28;20181;-88
2023/09/23 05:32:43;;;;;;;4.73;2.70;;;9.20;99.90;;;;;;5041272;28;20188;-89
2023/09/23 05:35:09;;;;;;;7.03;2.70;;;9.20;99.90;;;;;;5057933;28;20586;-89
2023/09/23 05:37:39;;;;;;;10.60;2.83;;;9.20;99.90;;;;;;5089912;28;20184;-89
2023/09/23 05:40:17;;;;;;;8.93;2.65;;;9.30;99.90;;;;;;5078507;28;20177;-89
2023/09/23 05:42:43;;;;;;;5.82;2.58;;;9.30;99.90;;;;;;5080351;28;20204;-89
2023/09/23 05:45:10;;;;;;;4.90;2.60;;;9.30;99.90;;;;;;5095886;28;20258;-88
2023/09/23 05:47:36;;;;;;;2.97;2.70;;;9.40;99.90;;;;;;5061276;28;20233;-89
2023/09/23 05:50:03;;;;;;;4.63;2.95;;;9.40;99.90;;;;;;5095597;28;20180;-88
2023/09/23 05:52:30;;;;;;;5.82;2.47;;;9.40;99.90;;;;;;5076652;28;20180;-89
2023/09/23 05:54:56;;;;;;;4.45;3.05;;;9.40;99.90;;;;;;5086395;28;20198;-89
2023/09/23 05:57:22;;;;;;;5.25;2.63;;;9.40;99.90;;;;;;5115561;28;20224;-89
2023/09/23 05:59:47;;;;;;;5.20;3.47;;;9.40;99.90;;;;;;5098002;28;20180;-89
2023/09/23 06:02:13;;;;;;;7.23;2.80;;;9.40;99.90;;;;;;5080283;28;20209;-88
2023/09/23 06:04:38;;;;;;;3.97;3.67;;;9.40;99.90;;;;;;5088883;28;20671;-88
2023/09/23 06:07:04;;;;;;;7.43;3.53;;;9.50;99.90;;;;;;5076984;28;20188;-89
2023/09/23 06:09:30;;;;;;;4.57;2.75;;;9.50;99.90;;;;;;5060278;28;20208;-89
2023/09/23 06:11:56;;;;;;;7.40;3.40;;;9.60;99.90;;;;;;5077027;28;20237;-89
2023/09/23 06:14:21;;;;;;;6.20;3.30;;;9.60;99.90;;;;;;5077536;28;20241;-91
2023/09/23 06:16:50;;;;;;;5.73;3.07;;;9.60;99.90;;;;;;5060817;28;20635;-89
2023/09/23 06:19:15;;;;;;;8.68;3.30;;;9.60;99.90;;;;;;5076909;28;20184;-89
2023/09/23 06:21:41;;;;;;;5.53;3.00;;;9.60;99.90;;;;;;5076445;28;20565;-89
2023/09/23 06:24:10;;;;;;;7.70;2.77;;;9.60;99.90;;;;;;5060212;28;20239;-88
2023/09/23 06:26:37;;;;;;;7.47;3.42;;;9.70;99.90;;;;;;5077391;28;20175;-89
2023/09/23 06:29:04;;;;;;;5.80;3.63;;;9.70;99.90;;;;;;5077367;28;20176;-89
2023/09/23 06:31:30;;;;;;;7.50;3.83;;;9.70;99.90;;;;;;5060346;28;20184;-89
2023/09/23 06:33:56;;;;;;;8.90;3.57;;;9.80;99.90;;;;;;5076874;28;20401;-88
2023/09/23 06:36:21;;;;;;;4.37;3.67;;;9.90;99.90;;;;;;5094970;28;20179;-88
2023/09/23 06:38:47;;;;;;;11.60;3.30;;;10.00;99.90;;;;;;5076678;28;20180;-88
2023/09/23 06:41:12;;;;;;;8.50;4.00;;;10.00;99.90;;;;;;5061285;28;20210;-88
2023/09/23 06:43:38;;;;;;;8.50;4.20;;;10.20;99.90;;;;;;5083060;28;20219;-89
2023/09/23 06:46:03;;;;;;;9.30;3.80;;;10.30;99.90;;;;;;5068505;28;20212;-89
2023/09/23 06:48:29;;;;;;;8.67;5.20;;;10.30;99.90;;;;;;5060122;28;20581;-89
2023/09/23 06:51:02;;;;;;;7.20;3.43;;;10.40;99.90;;;;;;5065763;28;20188;-89
2023/09/23 06:53:29;;;;;;;7.40;3.95;;;10.50;99.90;;;;;;5075313;28;20740;-88
2023/09/23 06:55:57;;;;;;;20.17;4.90;;;10.50;99.90;;;;;;5060008;28;20640;-88
2023/09/23 06:58:23;;;;;;;8.68;3.83;;;10.70;99.90;;;;;;5076993;28;20263;-88
2023/09/23 07:00:48;;;;;;;5.93;4.10;;;10.80;99.90;;;;;;5076344;28;20222;-87
2023/09/23 07:03:14;;;;;;;7.47;4.03;;;11.00;99.90;;;;;;5075704;28;20564;-89
2023/09/23 07:05:41;;;;;;;11.27;4.27;;;11.00;99.90;;;;;;5077836;28;20257;-90
2023/09/23 07:08:07;;;;;;;12.82;3.67;;;11.20;99.90;;;;;;5097494;28;20172;-89
2023/09/23 07:10:34;;;;;;;5.13;3.53;;;11.40;99.90;;;;;;5098275;28;20235;-90
2023/09/23 07:13:00;;;;;;;10.23;4.00;;;11.50;99.90;;;;;;5093650;28;20852;-89
2023/09/23 07:15:26;;;;;;;13.23;3.40;;;11.70;99.90;;;;;;5048301;28;20457;-89
2023/09/23 07:17:51;;;;;;;4.97;2.90;;;11.80;99.90;;;;;;5098972;28;20410;-89
2023/09/23 07:20:19;;;;;;;8.00;3.93;;;11.80;99.90;;;;;;5080994;28;20414;-90
2023/09/23 07:22:44;;;;;;;3.85;3.20;;;11.90;99.90;;;;;;5061485;28;20727;-90
2023/09/23 07:25:10;;;;;;;3.90;3.40;;;12.00;99.90;;;;;;5060165;28;20220;-89
2023/09/23 07:27:35;;;;;;;11.20;3.87;;;12.10;99.90;;;;;;5080515;28;20184;-90
2023/09/23 07:30:01;;;;;;;5.67;3.10;;;12.30;99.90;;;;;;5063407;28;20180;-87
2023/09/23 07:32:27;;;;;;;3.07;2.80;;;12.30;99.90;;;;;;5080138;28;20195;-89
2023/09/23 07:34:52;;;;;;;8.00;2.90;;;12.40;99.90;;;;;;5080527;28;20179;-89
2023/09/23 07:37:18;;;;;;;4.63;3.00;;;12.40;99.90;;;;;;5097831;28;20546;-89
2023/09/23 07:39:44;;;;;;;7.20;2.77;;;12.40;99.90;;;;;;5097815;28;20169;-90
2023/09/23 07:42:10;;;;;;;4.00;2.60;;;12.40;99.90;;;;;;5080290;28;20212;-89
2023/09/23 07:44:36;;;;;;;3.50;2.40;;;12.40;99.90;;;;;;5085050;28;20497;-88
2023/09/23 07:47:01;;;;;;;6.17;2.17;;;12.50;99.90;;;;;;5100133;28;20260;-89
2023/09/23 07:49:27;;;;;;;6.73;2.80;;;12.60;99.90;;;;;;5066267;28;20663;-90
2023/09/23 07:51:53;;;;;;;8.10;2.97;;;12.70;99.90;;;;;;5100447;28;20521;-88
2023/09/23 07:54:18;;;;;;;4.13;1.90;;;12.70;99.90;;;;;;5080740;28;20209;-88
2023/09/23 07:56:44;;;;;;;5.07;3.07;;;12.80;99.90;;;;;;5097459;28;20402;-87
2023/09/23 07:59:10;;;;;;;5.33;2.00;;;12.90;99.90;;;;;;5079927;28;20268;-89
2023/09/23 08:01:36;;;;;;;3.90;1.77;;;13.10;99.90;;;;;;5079175;28;20467;-88
2023/09/23 08:04:01;;;;;;;2.20;1.40;;;13.10;99.90;;;;;;5070075;28;20240;-89
2023/09/23 08:06:27;;;;;;;4.87;1.43;;;13.20;99.90;;;;;;5042956;28;20190;-90
2023/09/23 08:08:52;;;;;;;6.87;1.97;;;13.20;99.90;;;;;;5043373;28;20187;-90
2023/09/23 08:11:18;;;;;;;8.60;1.67;;;13.10;99.90;;;;;;5043509;28;20310;-90
2023/09/23 08:13:43;;;;;;;7.20;1.73;;;13.30;99.90;;;;;;5059764;28;20184;-90
2023/09/23 08:16:09;;;;;;;3.33;1.23;;;13.30;99.90;;;;;;5055246;28;20617;-89
2023/09/23 08:18:35;;;;;;;1.60;1.37;;;13.40;99.90;;;;;;5059201;28;20233;-90
2023/09/23 08:21:01;;;;;;;3.37;1.30;;;13.60;99.90;;;;;;5059129;28;20660;-87
2023/09/23 08:23:27;;;;;;;6.03;1.47;;;13.70;99.90;;;;;;5080602;28;20267;-89
2023/09/23 08:25:54;;;;;;;3.60;1.60;;;13.80;99.90;;;;;;5061602;28;20532;-88
2023/09/23 08:28:19;;;;;;;3.40;1.50;;;13.90;99.90;;;;;;5098876;28;20418;-88
2023/09/23 08:30:46;;;;;;;4.50;1.40;;;14.00;99.90;;;;;;5076787;28;20403;-90
2023/09/23 08:33:12;;;;;;;3.20;1.30;;;14.00;99.90;;;;;;5078537;28;20184;-89
2023/09/23 08:35:38;;;;;;;4.57;1.23;;;14.10;99.90;;;;;;5078918;28;20414;-90
2023/09/23 08:38:04;;;;;;;3.53;1.63;;;14.00;99.90;;;;;;5061932;28;20195;-90
2023/09/23 08:40:39;;;;;;;3.73;1.53;;;14.10;99.90;;;;;;5078895;28;20426;-90
2023/09/23 08:43:05;;;;;;;4.00;1.50;;;14.20;99.90;;;;;;5061729;28;20190;-89
2023/09/23 08:45:32;;;;;;;11.00;2.37;;;14.20;99.90;;;;;;5078360;28;20437;-90
2023/09/23 08:47:58;;;;;;;6.50;1.43;;;14.20;99.90;;;;;;5078317;28;20428;-89
2023/09/23 08:50:25;;;;;;;2.33;1.50;;;14.20;99.90;;;;;;5062033;28;20444;-89
2023/09/23 08:52:52;;;;;;;4.10;2.63;;;14.10;99.90;;;;;;5089042;28;20417;-90
2023/09/23 08:55:25;;;;;;;6.07;1.80;;;14.10;99.90;;;;;;5111686;28;20474;-90
2023/09/23 08:57:50;;;;;;;3.67;1.93;;;14.10;99.90;;;;;;5123247;27;20449;-90
2023/09/23 09:00:18;;;;;;;2.83;1.50;;;14.10;99.90;;;;;;5065072;28;20498;-90
2023/09/23 09:02:44;;;;;;;6.57;1.90;;;14.30;99.90;;;;;;5116390;28;20187;-90
2023/09/23 09:05:10;;;;;;;3.30;1.33;;;14.30;99.90;;;;;;5098966;28;20961;-90
2023/09/23 09:07:36;;;;;;;5.07;1.80;;;14.20;99.90;;;;;;5115807;28;20380;-90
2023/09/23 09:10:04;;;;;;;4.03;1.53;;;14.30;99.90;;;;;;5098512;28;20183;-90
2023/09/23 09:12:31;;;;;;;4.63;1.33;;;14.40;99.90;;;;;;5116368;28;20440;-90
2023/09/23 09:14:57;;;;;;;2.40;1.53;;;14.70;99.90;;;;;;5115675;28;20413;-89
2023/09/23 09:17:23;;;;;;;3.20;0.90;;;15.10;99.90;;;;;;5078333;28;20518;-90
2023/09/23 09:19:49;;;;;;;2.90;1.50;;;15.30;99.90;;;;;;5077818;28;20180;-90
2023/09/23 09:22:25;;;;;;;4.10;1.37;;;15.60;99.90;;;;;;5077354;28;20277;-90
2023/09/23 09:24:50;;;;;;;4.00;1.73;;;15.90;99.90;;;;;;5096295;28;20527;-87
2023/09/23 09:27:16;;;;;;;4.23;1.50;;;15.90;99.90;;;;;;5079679;28;20438;-90
2023/09/23 09:29:43;;;;;;;3.07;0.90;;;16.10;99.90;;;;;;5077151;28;20183;-90
2023/09/23 09:32:10;;;;;;;5.63;1.77;;;16.40;99.90;;;;;;5078183;28;20188;-87
2023/09/23 09:34:54;;;;;;;2.40;1.20;;;16.70;99.90;;;;;;5078137;28;20422;-89
2023/09/23 09:37:23;;;;;;;2.67;1.50;;;16.50;99.90;;;;;;5061914;28;20411;-89
2023/09/23 09:40:00;;;;;;;3.47;1.23;;;16.00;99.90;;;;;;5080260;28;20395;-87
2023/09/23 09:42:33;;;;;;;3.33;1.37;;;15.60;99.90;;;;;;5079843;28;20551;-87
2023/09/23 09:44:59;;;;;;;2.53;1.30;;;15.30;99.90;;;;;;5079738;28;20488;-89
2023/09/23 09:47:28;;;;;;;3.77;1.33;;;15.10;99.90;;;;;;5077975;28;20445;-87
2023/09/23 09:49:54;;;;;;;2.53;1.00;;;15.60;99.90;;;;;;5076826;28;20417;-85
2023/09/23 09:52:26;;;;;;;7.23;1.50;;;16.30;99.90;;;;;;5059870;28;20414;-88
2023/09/23 09:54:54;;;;;;;1.80;1.03;;;16.30;99.90;;;;;;5095214;28;20416;-86
2023/09/23 09:57:22;;;;;;;3.83;1.10;;;16.70;99.90;;;;;;5084598;28;20415;-86
2023/09/23 09:59:48;;;;;;;2.20;1.20;;;17.10;99.90;;;;;;5058000;28;20415;-86
2023/09/23 10:02:17;;;;;;;3.30;1.20;;;17.20;99.90;;;;;;5057432;28;20454;-86
2023/09/23 10:04:49;;;;;;;2.83;1.10;;;17.50;99.90;;;;;;5060286;28;20437;-87
2023/09/23 10:07:14;;;;;;;3.33;1.27;;;17.80;99.90;;;;;;5080317;28;20377;-88
2023/09/23 10:09:55;;;;;;;3.43;2.03;;;17.70;99.90;;;;;;5042066;28;20430;-90
2023/09/23 10:12:25;;;;;;;5.47;1.50;;;17.90;99.90;;;;;;5057353;28;20169;-88
2023/09/23 10:14:55;;;;;;;1.90;1.23;;;17.30;99.90;;;;;;5080191;28;20509;-88
2023/09/23 10:17:30;;;;;;;2.17;1.13;;;16.80;99.90;;;;;;5075660;28;20396;-87
2023/09/23 10:19:58;;;;;;;4.93;1.13;;;16.50;99.90;;;;;;5055676;28;20434;-87
2023/09/23 10:22:27;;;;;;;6.37;1.57;;;16.70;99.90;;;;;;5072860;28;20429;-88
2023/09/23 10:25:00;;;;;;;2.00;1.03;;;16.90;99.90;;;;;;5071944;28;20470;-89
2023/09/23 10:27:26;;;;;;;6.13;1.33;;;16.60;99.90;;;;;;5056396;28;20402;-87
2023/09/23 10:29:51;;;;;;;3.40;1.23;;;16.60;99.90;;;;;;5075047;28;20403;-86
2023/09/23 10:32:18;;;;;;;1.80;1.40;;;16.10;99.90;;;;;;5056224;28;20438;-87
2023/09/23 10:34:48;;;;;;;2.70;1.07;;;15.90;99.90;;;;;;5076310;28;20184;-88
2023/09/23 10:37:23;;;;;;;2.23;1.37;;;15.60;99.90;;;;;;5077264;28;20901;-86
2023/09/23 10:39:49;;;;;;;4.37;1.30;;;15.50;99.90;;;;;;5076308;28;20884;-88
2023/09/23 10:42:15;;;;;;;3.00;1.27;;;15.40;99.90;;;;;;5094326;28;20402;-86
2023/09/23 10:44:40;;;;;;;2.53;1.20;;;15.70;99.90;;;;;;5076117;28;20204;-86
2023/09/23 10:47:07;;;;;;;4.17;1.60;;;16.20;99.90;;;;;;5076592;28;20209;-88
2023/09/23 10:49:33;;;;;;;1.80;1.00;;;16.70;99.90;;;;;;5076250;28;20183;-86
2023/09/23 10:51:58;;;;;;;5.00;1.27;;;17.00;99.90;;;;;;5093984;28;20909;-88
2023/09/23 10:54:24;;;;;;;7.33;1.30;;;17.10;99.90;;;;;;5076316;28;20468;-86
2023/09/23 10:56:52;;;;;;;1.97;1.07;;;17.00;99.90;;;;;;5059558;28;20245;-87
2023/09/23 10:59:17;;;;;;;2.80;1.10;;;17.30;99.90;;;;;;5076537;28;20392;-90
2023/09/23 11:01:45;;;;;;;1.30;0.93;;;17.60;99.90;;;;;;5076619;28;20393;-90
2023/09/23 11:04:15;;;;;;;1.63;1.00;;;17.60;99.90;;;;;;5076592;28;20547;-90
2023/09/23 11:06:41;;;;;;;4.00;1.10;;;17.10;99.90;;;;;;5063205;28;20397;-88
2023/09/23 11:09:12;;;;;;;2.80;1.10;;;17.00;99.90;;;;;;5093518;28;20942;-86
2023/09/23 11:11:41;;;;;;;4.53;1.20;;;16.60;99.90;;;;;;5072604;28;20443;-89
2023/09/23 11:14:13;;;;;;;5.47;1.70;;;16.40;99.90;;;;;;5094367;28;20437;-86
2023/09/23 11:16:48;;;;;;;3.87;1.20;;;16.30;99.90;;;;;;5076114;28;20393;-86
2023/09/23 11:19:17;;;;;;;3.57;1.30;;;16.30;99.90;;;;;;5076399;28;20384;-88
2023/09/23 11:21:47;;;;;;;2.50;1.23;;;16.40;99.90;;;;;;5075519;28;20549;-89
2023/09/23 11:24:13;;;;;;;5.70;1.40;;;16.60;99.90;;;;;;5075338;28;20473;-86
2023/09/23 11:26:41;;;;;;;2.00;1.07;;;16.90;99.90;;;;;;5075584;28;20452;-86
2023/09/23 11:29:08;;;;;;;2.40;1.10;;;17.30;99.90;;;;;;5075773;28;20941;-87
2023/09/23 11:31:35;;;;;;;1.90;1.50;;;17.30;99.90;;;;;;5065626;28;20393;-87
2023/09/23 11:34:01;;;;;;;2.77;1.57;;;17.40;99.90;;;;;;5055833;28;20443;-89
2023/09/23 11:36:28;;;;;;;2.70;1.30;;;17.60;99.90;;;;;;5055459;28;20419;-88
2023/09/23 11:38:54;;;;;;;2.00;1.70;;;17.80;99.90;;;;;;5077164;28;20736;-90
2023/09/23 11:41:50;;;;;;;3.77;1.87;;;18.30;99.90;;;;;;5055629;28;20390;-88
2023/09/23 11:44:23;;;;;;;2.30;1.80;;;18.30;99.90;;;;;;5055781;28;20216;-91
2023/09/23 11:46:49;;;;;;;2.40;2.20;;;18.10;99.90;;;;;;5055314;28;20415;-91
2023/09/23 11:49:20;;;;;;;2.33;2.03;;;17.90;99.90;;;;;;5055735;28;20964;-90
2023/09/23 11:51:45;;;;;;;2.50;2.30;;;17.90;99.90;;;;;;5057491;28;20177;-91
2023/09/23 11:54:11;;;;;;;3.47;2.17;;;17.90;99.90;;;;;;5060473;28;20937;-90
2023/09/23 11:56:37;;;;;;;3.97;2.83;;;17.80;99.90;;;;;;5059872;28;20576;-91
2023/09/23 11:59:03;;;;;;;6.07;2.67;;;17.80;99.90;;;;;;5059506;28;20234;-90
2023/09/23 12:01:29;;;;;;;2.87;2.53;;;17.90;99.90;;;;;;5059420;28;20189;-88
2023/09/23 12:03:58;;;;;;;3.50;2.60;;;18.10;99.90;;;;;;5058740;28;20475;-89
2023/09/23 12:06:34;;;;;;;4.40;2.73;;;17.90;99.90;;;;;;5058931;28;20393;-88
2023/09/23 12:09:03;;;;;;;5.30;3.27;;;17.60;99.90;;;;;;5042868;28;20419;-88
2023/09/23 12:11:30;;;;;;;2.73;2.53;;;17.60;99.90;;;;;;5058552;28;20802;-88
2023/09/23 12:13:55;;;;;;;4.00;3.37;;;17.60;99.90;;;;;;5058328;28;20846;-88
2023/09/23 12:16:21;;;;;;;4.03;2.67;;;17.60;99.90;;;;;;5057702;28;20411;-88
2023/09/23 12:18:48;;;;;;;3.03;2.57;;;17.60;99.90;;;;;;5075595;28;20188;-87
2023/09/23 12:21:14;;;;;;;4.80;2.83;;;17.30;99.90;;;;;;5076059;28;20446;-87
2023/09/23 12:23:41;;;;;;;3.10;2.73;;;17.50;99.90;;;;;;5041409;28;21047;-87
2023/09/23 12:26:08;;;;;;;11.60;3.30;;;17.70;99.90;;;;;;5058105;28;20420;-88
2023/09/23 12:28:34;;;;;;;2.70;2.50;;;18.00;99.90;;;;;;5041462;28;20408;-88
2023/09/23 12:30:59;;;;;;;4.33;2.97;;;18.20;99.90;;;;;;5042038;28;20902;-89
2023/09/23 12:33:25;;;;;;;2.90;2.70;;;17.80;99.90;;;;;;5076580;28;20198;-90
2023/09/23 12:35:50;;;;;;;2.10;1.93;;;17.80;99.90;;;;;;5066634;28;20184;-87
2023/09/23 12:38:16;;;;;;;2.83;2.53;;;17.50;99.90;;;;;;5061785;28;20249;-87
2023/09/23 12:40:42;;;;;;;5.63;1.80;;;17.70;99.90;;;;;;5061978;28;20180;-87
2023/09/23 12:43:08;;;;;;;2.03;1.60;;;17.80;99.90;;;;;;5078201;28;20416;-88
2023/09/23 12:45:33;;;;;;;2.20;1.63;;;17.90;99.90;;;;;;5065396;28;20601;-88
2023/09/23 12:47:59;;;;;;;4.53;1.90;;;18.10;99.90;;;;;;5041082;28;20184;-87
2023/09/23 12:50:25;;;;;;;3.07;1.57;;;18.60;99.90;;;;;;5058249;28;20768;-87